sensor_id;sensor_type;location;lat;lon;timestamp;pressure;altitude;pressure_sealevel;temperature;humidity
43217;BME280;71549;42.686;23.300;2023-10-19T00:00:55;94769.00;;;23.94;32.42
43217;BME280;71549;42.686;23.300;2023-10-19T00:03:00;94778.47;;;24.03;32.45
43217;BME280;71549;42.686;23.300;2023-10-19T00:05:03;94784.75;;;24.08;32.42
43217;BME280;71549;42.686;23.300;2023-10-19T00:07:04;94775.44;;;24.05;32.36
43217;BME280;71549;42.686;23.300;2023-10-19T00:09:08;94775.00;;;24.03;32.51
43217;BME280;71549;42.686;23.300;2023-10-19T00:11:11;94764.44;;;23.98;32.10
43217;BME280;71549;42.686;23.300;2023-10-19T00:13:21;94766.94;;;24.06;32.28
43217;BME280;71549;42.686;23.300;2023-10-19T00:15:22;94771.22;;;24.08;32.00
43217;BME280;71549;42.686;23.300;2023-10-19T00:17:25;94758.34;;;24.01;31.96
43217;BME280;71549;42.686;23.300;2023-10-19T00:19:27;94770.03;;;24.05;32.27
43217;BME280;71549;42.686;23.300;2023-10-19T00:21:29;94763.38;;;24.02;32.17
43217;BME280;71549;42.686;23.300;2023-10-19T00:23:31;94757.28;;;24.05;32.32
43217;BME280;71549;42.686;23.300;2023-10-19T00:25:32;94723.59;;;23.83;32.21
43217;BME280;71549;42.686;23.300;2023-10-19T00:27:34;94760.75;;;24.06;32.14
43217;BME280;71549;42.686;23.300;2023-10-19T00:29:35;94725.59;;;23.86;32.30
43217;BME280;71549;42.686;23.300;2023-10-19T00:31:40;94752.22;;;24.04;32.35
43217;BME280;71549;42.686;23.300;2023-10-19T00:33:41;94750.59;;;23.99;32.03
43217;BME280;71549;42.686;23.300;2023-10-19T00:35:42;94759.56;;;24.03;32.26
43217;BME280;71549;42.686;23.300;2023-10-19T00:37:47;94746.28;;;23.98;31.97
43217;BME280;71549;42.686;23.300;2023-10-19T00:39:48;94743.75;;;24.05;32.52
43217;BME280;71549;42.686;23.300;2023-10-19T00:41:54;94614.91;;;23.23;32.54
43217;BME280;71549;42.686;23.300;2023-10-19T00:43:59;94746.53;;;24.09;32.50
43217;BME280;71549;42.686;23.300;2023-10-19T00:46:05;94699.88;;;23.77;32.30
43217;BME280;71549;42.686;23.300;2023-10-19T00:48:18;94730.03;;;23.95;32.29
43217;BME280;71549;42.686;23.300;2023-10-19T00:50:23;94733.22;;;24.00;32.35
43217;BME280;71549;42.686;23.300;2023-10-19T00:52:27;94750.28;;;24.04;32.16
43217;BME280;71549;42.686;23.300;2023-10-19T00:54:32;94749.16;;;24.05;32.47
43217;BME280;71549;42.686;23.300;2023-10-19T00:56:36;94748.03;;;24.06;32.39
43217;BME280;71549;42.686;23.300;2023-10-19T00:58:38;94722.59;;;23.92;32.27
43217;BME280;71549;42.686;23.300;2023-10-19T01:00:41;94729.59;;;23.93;32.50
43217;BME280;71549;42.686;23.300;2023-10-19T01:02:44;94713.91;;;23.82;32.22
43217;BME280;71549;42.686;23.300;2023-10-19T01:04:50;94744.88;;;24.04;32.46
43217;BME280;71549;42.686;23.300;2023-10-19T01:06:56;94740.84;;;23.95;32.59
43217;BME280;71549;42.686;23.300;2023-10-19T01:09:07;94747.16;;;24.02;32.40
43217;BME280;71549;42.686;23.300;2023-10-19T01:11:11;94739.34;;;23.97;32.43
43217;BME280;71549;42.686;23.300;2023-10-19T01:13:15;94752.56;;;24.02;32.39
43217;BME280;71549;42.686;23.300;2023-10-19T01:15:18;94754.16;;;24.03;32.18
43217;BME280;71549;42.686;23.300;2023-10-19T01:17:27;94627.19;;;23.20;32.29
43217;BME280;71549;42.686;23.300;2023-10-19T01:19:31;94759.13;;;24.01;32.47
43217;BME280;71549;42.686;23.300;2023-10-19T01:21:32;94722.81;;;23.83;32.13
43217;BME280;71549;42.686;23.300;2023-10-19T01:23:38;94709.81;;;23.73;32.00
43217;BME280;71549;42.686;23.300;2023-10-19T01:25:48;94738.81;;;23.92;32.16
43217;BME280;71549;42.686;23.300;2023-10-19T01:27:54;94581.78;;;22.91;32.13
43217;BME280;71549;42.686;23.300;2023-10-19T01:29:58;94742.38;;;23.96;31.98
43217;BME280;71549;42.686;23.300;2023-10-19T01:32:02;94743.59;;;23.98;32.39
43217;BME280;71549;42.686;23.300;2023-10-19T01:34:08;94730.63;;;23.88;32.35
43217;BME280;71549;42.686;23.300;2023-10-19T01:36:11;94724.31;;;23.80;32.18
43217;BME280;71549;42.686;23.300;2023-10-19T01:38:14;94753.91;;;23.93;32.28
43217;BME280;71549;42.686;23.300;2023-10-19T01:40:15;94676.91;;;23.51;32.16
43217;BME280;71549;42.686;23.300;2023-10-19T01:42:20;94743.03;;;23.89;32.14
43217;BME280;71549;42.686;23.300;2023-10-19T01:44:21;94742.31;;;23.92;32.44
43217;BME280;71549;42.686;23.300;2023-10-19T01:46:23;94712.78;;;23.67;32.50
43217;BME280;71549;42.686;23.300;2023-10-19T01:48:24;94755.91;;;23.96;32.29
43217;BME280;71549;42.686;23.300;2023-10-19T01:50:44;94746.84;;;23.88;32.35
43217;BME280;71549;42.686;23.300;2023-10-19T01:52:44;94758.09;;;23.90;32.32
43217;BME280;71549;42.686;23.300;2023-10-19T01:54:44;94760.78;;;23.90;32.44
43217;BME280;71549;42.686;23.300;2023-10-19T01:56:45;94745.97;;;23.84;32.31
43217;BME280;71549;42.686;23.300;2023-10-19T01:58:46;94750.28;;;23.85;32.56
43217;BME280;71549;42.686;23.300;2023-10-19T02:00:46;94697.31;;;23.49;32.39
43217;BME280;71549;42.686;23.300;2023-10-19T02:02:47;94743.66;;;23.82;32.30
43217;BME280;71549;42.686;23.300;2023-10-19T02:04:48;94732.97;;;23.74;33.03
43217;BME280;71549;42.686;23.300;2023-10-19T02:06:51;94734.81;;;23.70;32.55
43217;BME280;71549;42.686;23.300;2023-10-19T02:09:08;94737.25;;;23.75;32.41
43217;BME280;71549;42.686;23.300;2023-10-19T02:11:11;94691.38;;;23.43;32.53
43217;BME280;71549;42.686;23.300;2023-10-19T02:13:19;94706.34;;;23.56;32.66
43217;BME280;71549;42.686;23.300;2023-10-19T02:15:19;94749.75;;;23.79;32.60
43217;BME280;71549;42.686;23.300;2023-10-19T02:17:22;94730.03;;;23.63;32.47
43217;BME280;71549;42.686;23.300;2023-10-19T02:19:25;94753.59;;;23.78;32.52
43217;BME280;71549;42.686;23.300;2023-10-19T02:21:26;94743.00;;;23.73;32.24
43217;BME280;71549;42.686;23.300;2023-10-19T02:23:30;94754.03;;;23.80;32.53
43217;BME280;71549;42.686;23.300;2023-10-19T02:25:32;94746.28;;;23.79;32.47
43217;BME280;71549;42.686;23.300;2023-10-19T02:27:36;94737.19;;;23.71;32.60
43217;BME280;71549;42.686;23.300;2023-10-19T02:29:36;94745.84;;;23.77;32.86
43217;BME280;71549;42.686;23.300;2023-10-19T02:31:42;94744.94;;;23.73;32.59
43217;BME280;71549;42.686;23.300;2023-10-19T02:33:42;94749.75;;;23.79;32.91
43217;BME280;71549;42.686;23.300;2023-10-19T02:36:13;94747.03;;;23.79;32.36
43217;BME280;71549;42.686;23.300;2023-10-19T02:38:16;94750.91;;;23.78;32.45
43217;BME280;71549;42.686;23.300;2023-10-19T02:40:16;94723.00;;;23.58;32.66
43217;BME280;71549;42.686;23.300;2023-10-19T02:42:20;94741.53;;;23.76;32.23
43217;BME280;71549;42.686;23.300;2023-10-19T02:44:23;94736.41;;;23.71;32.67
43217;BME280;71549;42.686;23.300;2023-10-19T02:46:23;94747.72;;;23.76;32.54
43217;BME280;71549;42.686;23.300;2023-10-19T02:48:24;94695.66;;;23.44;32.41
43217;BME280;71549;42.686;23.300;2023-10-19T02:50:24;94726.72;;;23.70;32.80
43217;BME280;71549;42.686;23.300;2023-10-19T02:52:26;94720.44;;;23.65;32.52
43217;BME280;71549;42.686;23.300;2023-10-19T02:54:27;94708.53;;;23.51;32.51
43217;BME280;71549;42.686;23.300;2023-10-19T02:56:32;94717.59;;;23.58;32.96
43217;BME280;71549;42.686;23.300;2023-10-19T02:58:37;94743.44;;;23.75;32.52
43217;BME280;71549;42.686;23.300;2023-10-19T03:00:37;94697.13;;;23.41;32.99
43217;BME280;71549;42.686;23.300;2023-10-19T03:02:40;94741.53;;;23.76;32.46
43217;BME280;71549;42.686;23.300;2023-10-19T03:04:41;94737.63;;;23.73;32.67
43217;BME280;71549;42.686;23.300;2023-10-19T03:06:42;94735.03;;;23.77;32.44
43217;BME280;71549;42.686;23.300;2023-10-19T03:08:43;94715.31;;;23.60;32.66
43217;BME280;71549;42.686;23.300;2023-10-19T03:10:46;94710.25;;;23.59;32.40
43217;BME280;71549;42.686;23.300;2023-10-19T03:12:47;94729.78;;;23.68;32.54
43217;BME280;71549;42.686;23.300;2023-10-19T03:14:47;94736.91;;;23.76;32.55
43217;BME280;71549;42.686;23.300;2023-10-19T03:16:48;94687.97;;;23.46;32.68
43217;BME280;71549;42.686;23.300;2023-10-19T03:18:50;94722.03;;;23.66;32.21
43217;BME280;71549;42.686;23.300;2023-10-19T03:20:51;94694.16;;;23.46;32.27
43217;BME280;71549;42.686;23.300;2023-10-19T03:22:51;94741.53;;;23.76;32.62
43217;BME280;71549;42.686;23.300;2023-10-19T03:24:52;94731.34;;;23.69;32.47
43217;BME280;71549;42.686;23.300;2023-10-19T03:27:13;94723.94;;;23.66;32.63
43217;BME280;71549;42.686;23.300;2023-10-19T03:29:18;94728.13;;;23.63;32.35
43217;BME280;71549;42.686;23.300;2023-10-19T03:31:32;94704.69;;;23.52;32.49
43217;BME280;71549;42.686;23.300;2023-10-19T03:33:33;94718.03;;;23.60;32.26
43217;BME280;71549;42.686;23.300;2023-10-19T03:35:37;94723.53;;;23.64;32.37
43217;BME280;71549;42.686;23.300;2023-10-19T03:37:43;94725.06;;;23.65;32.38
43217;BME280;71549;42.686;23.300;2023-10-19T03:39:48;94725.59;;;23.71;32.29
43217;BME280;71549;42.686;23.300;2023-10-19T03:41:49;94732.63;;;23.75;32.54
43217;BME280;71549;42.686;23.300;2023-10-19T03:43:53;94721.75;;;23.72;32.15
43217;BME280;71549;42.686;23.300;2023-10-19T03:45:54;94719.84;;;23.72;32.05
43217;BME280;71549;42.686;23.300;2023-10-19T03:47:55;94716.78;;;23.74;32.22
43217;BME280;71549;42.686;23.300;2023-10-19T03:49:56;94713.19;;;23.70;32.15
43217;BME280;71549;42.686;23.300;2023-10-19T03:51:57;94691.00;;;23.60;32.19
43217;BME280;71549;42.686;23.300;2023-10-19T03:54:09;94717.56;;;23.74;32.12
43217;BME280;71549;42.686;23.300;2023-10-19T03:56:21;94693.34;;;23.62;32.08
43217;BME280;71549;42.686;23.300;2023-10-19T03:58:22;94711.75;;;23.72;32.22
43217;BME280;71549;42.686;23.300;2023-10-19T04:00:23;94703.72;;;23.60;32.44
43217;BME280;71549;42.686;23.300;2023-10-19T04:02:31;94716.72;;;23.70;32.10
43217;BME280;71549;42.686;23.300;2023-10-19T04:04:40;94716.34;;;23.72;32.25
43217;BME280;71549;42.686;23.300;2023-10-19T04:06:43;94654.72;;;23.26;32.52
43217;BME280;71549;42.686;23.300;2023-10-19T04:08:48;94721.75;;;23.72;32.54
43217;BME280;71549;42.686;23.300;2023-10-19T04:10:51;94717.91;;;23.73;32.14
43217;BME280;71549;42.686;23.300;2023-10-19T04:13:19;94709.63;;;23.65;32.25
43217;BME280;71549;42.686;23.300;2023-10-19T04:15:19;94706.28;;;23.53;32.24
43217;BME280;71549;42.686;23.300;2023-10-19T04:17:20;94727.94;;;23.72;32.31
43217;BME280;71549;42.686;23.300;2023-10-19T04:19:24;94686.59;;;23.52;32.37
43217;BME280;71549;42.686;23.300;2023-10-19T04:21:24;94701.72;;;23.57;31.98
43217;BME280;71549;42.686;23.300;2023-10-19T04:23:25;94716.09;;;23.61;32.27
43217;BME280;71549;42.686;23.300;2023-10-19T04:25:27;94700.09;;;23.52;32.22
43217;BME280;71549;42.686;23.300;2023-10-19T04:27:29;94719.31;;;23.66;32.37
43217;BME280;71549;42.686;23.300;2023-10-19T04:29:32;94711.13;;;23.63;32.18
43217;BME280;71549;42.686;23.300;2023-10-19T04:31:32;94717.41;;;23.67;32.08
43217;BME280;71549;42.686;23.300;2023-10-19T04:33:33;94718.19;;;23.67;32.47
43217;BME280;71549;42.686;23.300;2023-10-19T04:35:37;94701.72;;;23.57;32.58
43217;BME280;71549;42.686;23.300;2023-10-19T04:37:37;94624.25;;;23.10;32.32
43217;BME280;71549;42.686;23.300;2023-10-19T04:39:42;94712.00;;;23.67;32.68
43217;BME280;71549;42.686;23.300;2023-10-19T04:41:42;94706.59;;;23.67;32.64
43217;BME280;71549;42.686;23.300;2023-10-19T04:43:44;94705.03;;;23.66;32.70
43217;BME280;71549;42.686;23.300;2023-10-19T04:45:50;94705.03;;;23.66;32.72
43217;BME280;71549;42.686;23.300;2023-10-19T04:47:51;94705.47;;;23.68;32.42
43217;BME280;71549;42.686;23.300;2023-10-19T04:49:55;94685.19;;;23.58;32.72
43217;BME280;71549;42.686;23.300;2023-10-19T04:51:55;94696.13;;;23.65;32.83
43217;BME280;71549;42.686;23.300;2023-10-19T04:53:56;94705.81;;;23.66;32.57
43217;BME280;71549;42.686;23.300;2023-10-19T04:55:56;94707.38;;;23.67;32.71
43217;BME280;71549;42.686;23.300;2023-10-19T04:57:57;94701.97;;;23.67;32.57
43217;BME280;71549;42.686;23.300;2023-10-19T04:59:57;94703.53;;;23.69;32.83
43217;BME280;71549;42.686;23.300;2023-10-19T05:01:58;94696.22;;;23.69;32.55
43217;BME280;71549;42.686;23.300;2023-10-19T05:03:59;94701.19;;;23.67;32.49
43217;BME280;71549;42.686;23.300;2023-10-19T05:06:01;94700.75;;;23.65;32.52
43217;BME280;71549;42.686;23.300;2023-10-19T05:08:02;94663.16;;;23.40;32.55
43217;BME280;71549;42.686;23.300;2023-10-19T05:10:03;94684.31;;;23.54;32.53
43217;BME280;71549;42.686;23.300;2023-10-19T05:12:06;94691.28;;;23.55;32.46
43217;BME280;71549;42.686;23.300;2023-10-19T05:14:14;94707.03;;;23.69;32.44
43217;BME280;71549;42.686;23.300;2023-10-19T05:16:14;94668.03;;;23.35;32.07
43217;BME280;71549;42.686;23.300;2023-10-19T05:18:15;94714.06;;;23.74;32.09
43217;BME280;71549;42.686;23.300;2023-10-19T05:20:16;94708.31;;;23.75;32.04
43217;BME280;71549;42.686;23.300;2023-10-19T05:22:16;94684.13;;;23.63;31.91
43217;BME280;71549;42.686;23.300;2023-10-19T05:24:17;94706.84;;;23.78;31.84
43217;BME280;71549;42.686;23.300;2023-10-19T05:26:18;94688.81;;;23.66;31.78
43217;BME280;71549;42.686;23.300;2023-10-19T05:28:21;94710.34;;;23.78;31.83
43217;BME280;71549;42.686;23.300;2023-10-19T05:30:24;94715.38;;;23.80;31.70
43217;BME280;71549;42.686;23.300;2023-10-19T05:32:24;94698.13;;;23.69;31.84
43217;BME280;71549;42.686;23.300;2023-10-19T05:34:25;94687.59;;;23.63;31.58
43217;BME280;71549;42.686;23.300;2023-10-19T05:36:29;94694.28;;;23.70;31.72
43217;BME280;71549;42.686;23.300;2023-10-19T05:38:30;94714.97;;;23.78;31.48
43217;BME280;71549;42.686;23.300;2023-10-19T05:40:32;94698.47;;;23.67;31.82
43217;BME280;71549;42.686;23.300;2023-10-19T05:42:33;94709.81;;;23.73;31.85
43217;BME280;71549;42.686;23.300;2023-10-19T05:44:34;94721.66;;;23.84;31.73
43217;BME280;71549;42.686;23.300;2023-10-19T05:46:36;94690.63;;;23.62;31.69
43217;BME280;71549;42.686;23.300;2023-10-19T05:48:38;94717.41;;;23.83;31.59
43217;BME280;71549;42.686;23.300;2023-10-19T05:50:39;94628.78;;;23.21;31.71
43217;BME280;71549;42.686;23.300;2023-10-19T05:52:42;94733.69;;;23.86;31.76
43217;BME280;71549;42.686;23.300;2023-10-19T05:54:42;94705.19;;;23.73;31.75
43217;BME280;71549;42.686;23.300;2023-10-19T05:56:43;94704.41;;;23.73;31.39
43217;BME280;71549;42.686;23.300;2023-10-19T05:58:43;94585.34;;;22.95;31.65
43217;BME280;71549;42.686;23.300;2023-10-19T06:00:45;94734.13;;;23.89;31.58
43217;BME280;71549;42.686;23.300;2023-10-19T06:02:48;94727.16;;;23.88;31.47
43217;BME280;71549;42.686;23.300;2023-10-19T06:04:52;94689.84;;;23.61;31.28
43217;BME280;71549;42.686;23.300;2023-10-19T06:06:53;94633.03;;;23.22;31.57
43217;BME280;71549;42.686;23.300;2023-10-19T06:08:53;94632.69;;;23.24;31.86
43217;BME280;71549;42.686;23.300;2023-10-19T06:10:54;94606.00;;;23.03;31.82
43217;BME280;71549;42.686;23.300;2023-10-19T06:12:55;94695.44;;;23.69;31.83
43217;BME280;71549;42.686;23.300;2023-10-19T06:14:56;94685.31;;;23.65;31.64
43217;BME280;71549;42.686;23.300;2023-10-19T06:16:56;94562.59;;;22.80;31.76
43217;BME280;71549;42.686;23.300;2023-10-19T06:18:57;94731.44;;;23.89;31.48
43217;BME280;71549;42.686;23.300;2023-10-19T06:20:59;94678.09;;;23.54;31.52
43217;BME280;71549;42.686;23.300;2023-10-19T06:23:00;94714.97;;;23.78;31.56
43217;BME280;71549;42.686;23.300;2023-10-19T06:25:04;94672.56;;;23.46;31.42
43217;BME280;71549;42.686;23.300;2023-10-19T06:27:05;94542.59;;;22.65;31.47
43217;BME280;71549;42.686;23.300;2023-10-19T06:29:06;94722.03;;;23.82;31.42
43217;BME280;71549;42.686;23.300;2023-10-19T06:31:06;94714.06;;;23.74;31.42
43217;BME280;71549;42.686;23.300;2023-10-19T06:33:07;94689.50;;;23.63;31.43
43217;BME280;71549;42.686;23.300;2023-10-19T06:35:08;94695.69;;;23.63;31.47
43217;BME280;71549;42.686;23.300;2023-10-19T06:37:10;94729.72;;;23.80;31.48
43217;BME280;71549;42.686;23.300;2023-10-19T06:39:12;94670.97;;;23.45;31.58
43217;BME280;71549;42.686;23.300;2023-10-19T06:41:14;94729.63;;;23.77;31.57
43217;BME280;71549;42.686;23.300;2023-10-19T06:43:15;94726.91;;;23.77;31.38
43217;BME280;71549;42.686;23.300;2023-10-19T06:45:17;94728.28;;;23.71;31.35
43217;BME280;71549;42.686;23.300;2023-10-19T06:47:19;94740.75;;;23.75;31.49
43217;BME280;71549;42.686;23.300;2023-10-19T06:49:20;94737.25;;;23.75;31.21
43217;BME280;71549;42.686;23.300;2023-10-19T06:51:21;94753.47;;;23.75;31.52
43217;BME280;71549;42.686;23.300;2023-10-19T06:53:22;94730.28;;;23.74;31.49
43217;BME280;71549;42.686;23.300;2023-10-19T06:55:22;94573.41;;;22.80;31.41
43217;BME280;71549;42.686;23.300;2023-10-19T06:57:23;94667.69;;;23.36;31.52
43217;BME280;71549;42.686;23.300;2023-10-19T06:59:23;94714.06;;;23.74;31.23
43217;BME280;71549;42.686;23.300;2023-10-19T07:01:24;94638.09;;;23.24;31.33
43217;BME280;71549;42.686;23.300;2023-10-19T07:03:29;94707.09;;;23.73;31.47
43217;BME280;71549;42.686;23.300;2023-10-19T07:05:30;94673.34;;;23.47;31.15
43217;BME280;71549;42.686;23.300;2023-10-19T07:07:31;94696.50;;;23.64;31.09
43217;BME280;71549;42.686;23.300;2023-10-19T07:09:31;94597.34;;;22.97;31.44
43217;BME280;71549;42.686;23.300;2023-10-19T07:11:33;94658.44;;;23.37;31.30
43217;BME280;71549;42.686;23.300;2023-10-19T07:13:33;94614.53;;;23.05;31.36
43217;BME280;71549;42.686;23.300;2023-10-19T07:15:34;94724.09;;;23.73;31.17
43217;BME280;71549;42.686;23.300;2023-10-19T07:17:35;94574.47;;;22.75;31.19
43217;BME280;71549;42.686;23.300;2023-10-19T07:19:35;94609.81;;;23.02;31.15
43217;BME280;71549;42.686;23.300;2023-10-19T07:21:39;94711.38;;;23.74;31.43
43217;BME280;71549;42.686;23.300;2023-10-19T07:23:44;94718.34;;;23.75;31.23
43217;BME280;71549;42.686;23.300;2023-10-19T07:25:49;94694.31;;;23.54;31.35
43217;BME280;71549;42.686;23.300;2023-10-19T07:27:54;94719.84;;;23.72;31.15
43217;BME280;71549;42.686;23.300;2023-10-19T07:29:55;94673.34;;;23.47;31.17
43217;BME280;71549;42.686;23.300;2023-10-19T07:31:57;94699.47;;;23.59;31.10
43217;BME280;71549;42.686;23.300;2023-10-19T07:33:58;94672.38;;;23.39;31.15
43217;BME280;71549;42.686;23.300;2023-10-19T07:35:59;94649.66;;;23.24;31.09
43217;BME280;71549;42.686;23.300;2023-10-19T07:38:07;94723.66;;;23.71;31.26
43217;BME280;71549;42.686;23.300;2023-10-19T07:40:08;94685.72;;;23.48;30.96
43217;BME280;71549;42.686;23.300;2023-10-19T07:42:14;94716.28;;;23.68;31.11
43217;BME280;71549;42.686;23.300;2023-10-19T07:44:15;94547.84;;;22.58;31.16
43217;BME280;71549;42.686;23.300;2023-10-19T07:46:15;94728.38;;;23.74;31.06
43217;BME280;71549;42.686;23.300;2023-10-19T07:48:16;94661.34;;;23.29;31.22
43217;BME280;71549;42.686;23.300;2023-10-19T07:50:17;94692.97;;;23.44;31.20
43217;BME280;71549;42.686;23.300;2023-10-19T07:52:18;94727.22;;;23.75;30.84
43217;BME280;71549;42.686;23.300;2023-10-19T07:54:19;94572.03;;;22.70;31.05
43217;BME280;71549;42.686;23.300;2023-10-19T07:56:20;94649.53;;;23.17;30.98
43217;BME280;71549;42.686;23.300;2023-10-19T07:58:21;94710.69;;;23.61;31.24
43217;BME280;71549;42.686;23.300;2023-10-19T08:00:21;94728.38;;;23.74;30.97
43217;BME280;71549;42.686;23.300;2023-10-19T08:02:25;94669.88;;;23.31;31.02
43217;BME280;71549;42.686;23.300;2023-10-19T08:04:26;94732.63;;;23.75;30.89
43217;BME280;71549;42.686;23.300;2023-10-19T08:06:29;94595.59;;;22.89;30.95
43217;BME280;71549;42.686;23.300;2023-10-19T08:08:32;94641.66;;;23.12;31.01
43217;BME280;71549;42.686;23.300;2023-10-19T08:10:36;94643.75;;;23.19;31.12
43217;BME280;71549;42.686;23.300;2023-10-19T08:12:39;94728.81;;;23.76;30.73
43217;BME280;71549;42.686;23.300;2023-10-19T08:14:41;94655.31;;;23.35;30.83
43217;BME280;71549;42.686;23.300;2023-10-19T08:16:42;94658.44;;;23.37;30.85
43217;BME280;71549;42.686;23.300;2023-10-19T08:18:43;94708.94;;;23.69;31.02
43217;BME280;71549;42.686;23.300;2023-10-19T08:20:45;94709.38;;;23.71;30.98
43217;BME280;71549;42.686;23.300;2023-10-19T08:22:45;94713.19;;;23.70;31.03
43217;BME280;71549;42.686;23.300;2023-10-19T08:24:47;94641.13;;;23.22;30.99
43217;BME280;71549;42.686;23.300;2023-10-19T08:26:47;94653.75;;;23.34;30.88
43217;BME280;71549;42.686;23.300;2023-10-19T08:28:47;94671.78;;;23.46;30.92
43217;BME280;71549;42.686;23.300;2023-10-19T08:30:48;94557.75;;;22.70;31.07
43217;BME280;71549;42.686;23.300;2023-10-19T08:33:01;94725.44;;;23.79;30.88
43217;BME280;71549;42.686;23.300;2023-10-19T08:35:02;94705.09;;;23.70;30.98
43217;BME280;71549;42.686;23.300;2023-10-19T08:37:04;94620.59;;;23.18;31.01
43217;BME280;71549;42.686;23.300;2023-10-19T08:39:10;94716.97;;;23.81;30.80
43217;BME280;71549;42.686;23.300;2023-10-19T08:41:16;94690.19;;;23.60;31.02
43217;BME280;71549;42.686;23.300;2023-10-19T08:43:18;94693.44;;;23.65;30.91
43217;BME280;71549;42.686;23.300;2023-10-19T08:45:19;94715.38;;;23.80;31.02
43217;BME280;71549;42.686;23.300;2023-10-19T08:47:22;94712.09;;;23.71;30.92
43217;BME280;71549;42.686;23.300;2023-10-19T08:49:26;94698.81;;;23.65;30.95
43217;BME280;71549;42.686;23.300;2023-10-19T08:51:29;94621.72;;;23.17;30.94
43217;BME280;71549;42.686;23.300;2023-10-19T08:53:30;94696.56;;;23.67;31.33
43217;BME280;71549;42.686;23.300;2023-10-19T08:55:32;94722.81;;;23.83;30.94
43217;BME280;71549;42.686;23.300;2023-10-19T08:57:34;94574.34;;;22.87;31.04
43217;BME280;71549;42.686;23.300;2023-10-19T08:59:37;94723.59;;;23.83;30.92
43217;BME280;71549;42.686;23.300;2023-10-19T09:01:38;94673.50;;;23.54;30.83
43217;BME280;71549;42.686;23.300;2023-10-19T09:03:39;94717.41;;;23.83;31.13
43217;BME280;71549;42.686;23.300;2023-10-19T09:05:41;94610.03;;;23.13;31.17
43217;BME280;71549;42.686;23.300;2023-10-19T09:07:41;94717.41;;;23.83;30.95
43217;BME280;71549;42.686;23.300;2023-10-19T09:09:42;94653.22;;;23.44;30.99
43217;BME280;71549;42.686;23.300;2023-10-19T09:11:47;94704.66;;;23.83;31.23
43217;BME280;71549;42.686;23.300;2023-10-19T09:13:53;94704.66;;;23.83;31.30
43217;BME280;71549;42.686;23.300;2023-10-19T09:15:53;94672.25;;;23.67;31.21
43217;BME280;71549;42.686;23.300;2023-10-19T09:17:55;94646.84;;;23.53;31.00
43217;BME280;71549;42.686;23.300;2023-10-19T09:19:56;94688.88;;;23.85;31.27
43217;BME280;71549;42.686;23.300;2023-10-19T09:21:56;94593.81;;;23.29;30.83
43217;BME280;71549;42.686;23.300;2023-10-19T09:23:59;94685.47;;;23.89;30.91
43217;BME280;71549;42.686;23.300;2023-10-19T09:26:01;94681.97;;;23.88;31.12
43217;BME280;71549;42.686;23.300;2023-10-19T09:28:06;94559.28;;;23.02;31.13
43217;BME280;71549;42.686;23.300;2023-10-19T09:30:08;94643.66;;;23.66;31.13
43217;BME280;71549;42.686;23.300;2023-10-19T09:32:11;94666.19;;;23.90;30.91
43217;BME280;71549;42.686;23.300;2023-10-19T09:34:13;94653.22;;;23.80;31.03
43217;BME280;71549;42.686;23.300;2023-10-19T09:36:14;94668.88;;;23.90;30.98
43217;BME280;71549;42.686;23.300;2023-10-19T09:38:15;94623.25;;;23.69;30.91
43217;BME280;71549;42.686;23.300;2023-10-19T09:40:23;94668.88;;;23.90;31.12
43217;BME280;71549;42.686;23.300;2023-10-19T09:42:24;94626.72;;;23.70;31.23
43217;BME280;71549;42.686;23.300;2023-10-19T09:44:28;94624.47;;;23.72;31.18
43217;BME280;71549;42.686;23.300;2023-10-19T09:46:32;94647.25;;;23.90;30.91
43217;BME280;71549;42.686;23.300;2023-10-19T09:48:41;94651.13;;;23.89;31.02
43217;BME280;71549;42.686;23.300;2023-10-19T09:50:44;94542.72;;;23.20;31.11
43217;BME280;71549;42.686;23.300;2023-10-19T09:52:51;94629.50;;;23.73;31.10
43217;BME280;71549;42.686;23.300;2023-10-19T09:54:59;94648.06;;;23.91;30.96
43217;BME280;71549;42.686;23.300;2023-10-19T09:57:08;94580.38;;;23.48;31.01
43217;BME280;71549;42.686;23.300;2023-10-19T09:59:26;94653.81;;;23.89;31.05
43217;BME280;71549;42.686;23.300;2023-10-19T10:02:03;94643.78;;;23.90;31.17
43217;BME280;71549;42.686;23.300;2023-10-19T10:04:03;94535.75;;;23.19;31.04
43217;BME280;71549;42.686;23.300;2023-10-19T10:06:11;94590.63;;;23.58;30.82
43217;BME280;71549;42.686;23.300;2023-10-19T10:10:17;94590.88;;;23.53;30.83
43217;BME280;71549;42.686;23.300;2023-10-19T10:12:24;94549.13;;;23.31;30.94
43217;BME280;71549;42.686;23.300;2023-10-19T10:14:27;94575.31;;;23.46;30.90
43217;BME280;71549;42.686;23.300;2023-10-19T10:16:34;94542.50;;;23.29;30.99
43217;BME280;71549;42.686;23.300;2023-10-19T10:18:35;94572.19;;;23.44;30.97
43217;BME280;71549;42.686;23.300;2023-10-19T10:20:36;94625.16;;;23.84;30.94
43217;BME280;71549;42.686;23.300;2023-10-19T10:22:36;94536.41;;;23.32;31.11
43217;BME280;71549;42.686;23.300;2023-10-19T10:24:44;94554.81;;;23.45;31.10
43217;BME280;71549;42.686;23.300;2023-10-19T10:26:59;94568.63;;;23.60;31.02
43217;BME280;71549;42.686;23.300;2023-10-19T10:31:16;94598.13;;;23.84;31.05
43217;BME280;71549;42.686;23.300;2023-10-19T10:33:40;94603.16;;;23.86;31.01
43217;BME280;71549;42.686;23.300;2023-10-19T10:37:53;94533.78;;;23.35;31.00
43217;BME280;71549;42.686;23.300;2023-10-19T10:39:58;94512.25;;;23.39;31.00
43217;BME280;71549;42.686;23.300;2023-10-19T10:42:01;94540.13;;;23.62;31.22
43217;BME280;71549;42.686;23.300;2023-10-19T10:44:03;94540.25;;;23.70;31.38
43217;BME280;71549;42.686;23.300;2023-10-19T10:46:07;94563.75;;;23.85;31.07
43217;BME280;71549;42.686;23.300;2023-10-19T10:48:12;94547.31;;;23.74;31.12
43217;BME280;71549;42.686;23.300;2023-10-19T10:50:19;94556.78;;;23.84;31.02